Time;durP1;ratioP1;P1;durP2;ratioP2;P2;SDS_P1;SDS_P2;PMS_P1;PMS_P2;Temp;Humidity;BMP_temperature;BMP_pressure;BME280_temperature;BME280_humidity;BME280_pressure;Samples;Min_cycle;Max_cycle;Signal;HPM_P1;HPM_P2
2023/01/25 00:00:00;;;;;;;0.73;0.70;;;;;;;;;;5130556;27;20273;-82
2023/01/25 00:02:27;;;;;;;0.97;0.97;;;;;;;;;;5129685;27;20261;-83
2023/01/25 00:04:55;;;;;;;2.53;1.10;;;;;;;;;;5129703;27;20188;-82
2023/01/25 00:07:22;;;;;;;0.43;0.43;;;;;;;;;;5129628;27;20208;-83
2023/01/25 00:09:49;;;;;;;0.10;0.10;;;;;;;;;;5129826;27;20684;-82
2023/01/25 00:12:16;;;;;;;0.93;0.60;;;;;;;;;;5130626;27;20253;-83
2023/01/25 00:14:43;;;;;;;0.40;0.40;;;;;;;;;;5132689;27;20197;-82
2023/01/25 00:17:10;;;;;;;0.53;0.53;;;;;;;;;;5135366;27;20200;-81
2023/01/25 00:19:37;;;;;;;0.53;0.20;;;;;;;;;;5113541;28;20236;-82
2023/01/25 00:22:05;;;;;;;0.10;0.10;;;;;;;;;;5109755;28;20280;-81
2023/01/25 00:24:31;;;;;;;0.53;0.47;;;;;;;;;;5110437;28;20617;-82
2023/01/25 00:26:58;;;;;;;0.93;0.33;;;;;;;;;;5109342;28;20280;-82
2023/01/25 00:29:25;;;;;;;2.23;1.00;;;;;;;;;;5109401;28;20330;-83
2023/01/25 00:32:02;;;;;;;0.63;0.63;;;;;;;;;;5108989;28;20208;-82
2023/01/25 00:34:42;;;;;;;0.10;0.10;;;;;;;;;;5111772;28;20581;-83
2023/01/25 00:37:31;;;;;;;0.30;0.30;;;;;;;;;;5110453;28;20216;-81
2023/01/25 00:39:59;;;;;;;0.20;0.10;;;;;;;;;;5105252;28;20293;-83
2023/01/25 00:42:26;;;;;;;0.30;0.30;;;;;;;;;;5109551;28;20246;-82
2023/01/25 00:44:53;;;;;;;0.10;0.10;;;;;;;;;;5109301;28;20236;-82
2023/01/25 00:47:20;;;;;;;0.30;0.30;;;;;;;;;;5108954;28;20322;-81
2023/01/25 00:49:47;;;;;;;0.33;0.33;;;;;;;;;;5108713;28;20243;-82
2023/01/25 00:52:14;;;;;;;0.57;0.57;;;;;;;;;;5110884;28;20204;-82
2023/01/25 00:54:41;;;;;;;0.00;0.00;;;;;;;;;;5112724;28;20626;-83
2023/01/25 00:57:10;;;;;;;0.37;0.37;;;;;;;;;;5113830;28;20555;-82
2023/01/25 00:59:36;;;;;;;0.50;0.50;;;;;;;;;;5113837;28;20276;-82
2023/01/25 01:02:04;;;;;;;0.30;0.30;;;;;;;;;;5112192;28;20692;-82
2023/01/25 01:04:31;;;;;;;0.53;0.53;;;;;;;;;;5113878;28;20205;-83
2023/01/25 01:06:58;;;;;;;0.10;0.10;;;;;;;;;;5114817;28;20197;-83
2023/01/25 01:09:26;;;;;;;0.17;0.17;;;;;;;;;;5115350;28;20311;-81
2023/01/25 01:11:54;;;;;;;0.10;0.10;;;;;;;;;;5117710;28;20622;-83
2023/01/25 01:14:24;;;;;;;0.40;0.40;;;;;;;;;;5118803;28;20190;-80
2023/01/25 01:16:52;;;;;;;1.17;0.13;;;;;;;;;;5117081;28;20188;-82
2023/01/25 01:19:19;;;;;;;0.00;0.00;;;;;;;;;;5115528;28;20669;-82
2023/01/25 01:21:46;;;;;;;0.30;0.23;;;;;;;;;;5112592;28;20225;-81
2023/01/25 01:24:13;;;;;;;0.97;0.47;;;;;;;;;;5112388;27;20572;-82
2023/01/25 01:26:40;;;;;;;0.17;0.17;;;;;;;;;;5113245;28;20201;-83
2023/01/25 01:29:07;;;;;;;0.00;0.00;;;;;;;;;;5112741;28;20303;-81
2023/01/25 01:31:35;;;;;;;0.20;0.17;;;;;;;;;;5111885;28;20722;-84
2023/01/25 01:34:02;;;;;;;0.50;0.50;;;;;;;;;;5113016;28;20647;-83
2023/01/25 01:36:30;;;;;;;0.33;0.33;;;;;;;;;;5111751;28;20193;-83
2023/01/25 01:38:58;;;;;;;0.10;0.10;;;;;;;;;;5112275;28;20197;-83
2023/01/25 01:41:25;;;;;;;0.20;0.20;;;;;;;;;;5113103;28;20233;-83
2023/01/25 01:43:53;;;;;;;0.00;0.00;;;;;;;;;;5111852;28;20261;-83
2023/01/25 01:46:30;;;;;;;0.87;0.33;;;;;;;;;;5111677;28;20208;-83
2023/01/25 01:49:01;;;;;;;1.83;0.53;;;;;;;;;;5111612;28;20665;-83
2023/01/25 01:51:33;;;;;;;0.30;0.30;;;;;;;;;;5112076;28;20253;-83
2023/01/25 01:54:02;;;;;;;0.03;0.03;;;;;;;;;;5112099;28;20209;-83
2023/01/25 01:56:31;;;;;;;0.00;0.00;;;;;;;;;;5112568;28;20197;-83
2023/01/25 01:58:59;;;;;;;0.10;0.10;;;;;;;;;;5112090;28;20211;-83
2023/01/25 02:01:26;;;;;;;1.40;0.93;;;;;;;;;;5111996;28;20196;-82
2023/01/25 02:03:53;;;;;;;0.10;0.10;;;;;;;;;;5111043;28;20519;-82
2023/01/25 02:06:36;;;;;;;0.90;0.73;;;;;;;;;;5112938;28;20208;-82
2023/01/25 02:09:03;;;;;;;0.60;0.50;;;;;;;;;;5112156;28;20608;-81
2023/01/25 02:11:31;;;;;;;0.10;0.10;;;;;;;;;;5110945;28;20545;-82
2023/01/25 02:13:58;;;;;;;0.47;0.47;;;;;;;;;;5112425;28;20549;-84
2023/01/25 02:16:27;;;;;;;0.00;0.00;;;;;;;;;;5112395;28;20197;-83
2023/01/25 02:18:55;;;;;;;0.07;0.07;;;;;;;;;;5110557;28;20216;-83
2023/01/25 02:21:22;;;;;;;0.17;0.17;;;;;;;;;;5111667;27;20661;-82
2023/01/25 02:23:53;;;;;;;0.93;0.30;;;;;;;;;;5111757;28;20228;-83
2023/01/25 02:26:22;;;;;;;0.00;0.00;;;;;;;;;;5111230;28;20196;-81
2023/01/25 02:28:52;;;;;;;0.13;0.13;;;;;;;;;;5111636;28;20797;-83
2023/01/25 02:31:18;;;;;;;0.30;0.30;;;;;;;;;;5111772;28;20194;-82
2023/01/25 02:33:45;;;;;;;0.33;0.13;;;;;;;;;;5111302;28;20214;-83
2023/01/25 02:36:19;;;;;;;0.53;0.53;;;;;;;;;;5111906;28;20193;-81
2023/01/25 02:38:48;;;;;;;0.43;0.43;;;;;;;;;;5111975;28;20646;-82
2023/01/25 02:41:18;;;;;;;14.43;0.77;;;;;;;;;;5110946;28;20212;-81
2023/01/25 02:43:46;;;;;;;0.23;0.23;;;;;;;;;;5111606;28;20201;-82
2023/01/25 02:46:15;;;;;;;0.10;0.10;;;;;;;;;;5111189;28;20212;-83
2023/01/25 02:48:41;;;;;;;0.10;0.10;;;;;;;;;;5110678;28;20232;-83
2023/01/25 02:51:09;;;;;;;0.10;0.10;;;;;;;;;;5110950;28;20213;-83
2023/01/25 02:53:36;;;;;;;0.30;0.30;;;;;;;;;;5111552;28;20262;-84
2023/01/25 02:56:03;;;;;;;1.03;0.20;;;;;;;;;;5110655;28;20201;-81
2023/01/25 02:58:30;;;;;;;0.00;0.00;;;;;;;;;;5110992;28;20376;-83
2023/01/25 03:00:59;;;;;;;0.10;0.10;;;;;;;;;;5110631;28;20197;-82
2023/01/25 03:03:25;;;;;;;0.30;0.30;;;;;;;;;;5110835;28;20204;-82
2023/01/25 03:05:52;;;;;;;0.00;0.00;;;;;;;;;;5110981;28;20239;-83
2023/01/25 03:08:19;;;;;;;0.30;0.30;;;;;;;;;;5110990;28;20189;-84
2023/01/25 03:10:46;;;;;;;0.03;0.03;;;;;;;;;;5109766;28;20353;-83
2023/01/25 03:13:13;;;;;;;0.10;0.10;;;;;;;;;;5110697;28;20597;-83
2023/01/25 03:15:39;;;;;;;0.00;0.00;;;;;;;;;;5110609;28;20277;-83
2023/01/25 03:18:08;;;;;;;0.10;0.10;;;;;;;;;;5110071;28;20269;-83
2023/01/25 03:20:35;;;;;;;0.47;0.47;;;;;;;;;;5110541;28;20201;-82
2023/01/25 03:23:02;;;;;;;0.17;0.17;;;;;;;;;;5110752;28;20758;-83
2023/01/25 03:25:29;;;;;;;0.20;0.20;;;;;;;;;;5110624;28;20209;-83
2023/01/25 03:27:56;;;;;;;0.00;0.00;;;;;;;;;;5110360;28;20201;-83
2023/01/25 03:30:23;;;;;;;0.00;0.00;;;;;;;;;;5110801;28;20233;-82
2023/01/25 03:32:51;;;;;;;0.23;0.23;;;;;;;;;;5110039;28;20266;-82
2023/01/25 03:35:20;;;;;;;0.53;0.53;;;;;;;;;;5110170;28;20233;-83
2023/01/25 03:37:46;;;;;;;0.10;0.10;;;;;;;;;;5111579;28;20193;-83
2023/01/25 03:40:13;;;;;;;0.47;0.47;;;;;;;;;;5110345;28;20197;-82
2023/01/25 03:42:41;;;;;;;0.70;0.20;;;;;;;;;;5109300;28;20669;-82
2023/01/25 03:45:07;;;;;;;0.63;0.63;;;;;;;;;;5110480;28;20237;-83
2023/01/25 03:47:34;;;;;;;0.10;0.10;;;;;;;;;;5110033;28;20197;-84
2023/01/25 03:50:01;;;;;;;0.00;0.00;;;;;;;;;;5110394;28;20745;-82
2023/01/25 03:52:44;;;;;;;0.30;0.30;;;;;;;;;;5110858;28;20197;-83
2023/01/25 03:55:11;;;;;;;0.00;0.00;;;;;;;;;;5110519;28;20250;-83
2023/01/25 03:57:38;;;;;;;0.30;0.20;;;;;;;;;;5111636;28;20189;-82
2023/01/25 04:00:07;;;;;;;0.33;0.30;;;;;;;;;;5109822;28;20284;-82
2023/01/25 04:02:34;;;;;;;0.10;0.10;;;;;;;;;;5110675;28;20201;-82
2023/01/25 04:05:01;;;;;;;0.50;0.50;;;;;;;;;;5110476;28;20197;-83
2023/01/25 04:07:28;;;;;;;0.10;0.10;;;;;;;;;;5110449;28;20250;-83
2023/01/25 04:09:56;;;;;;;0.20;0.20;;;;;;;;;;5108877;28;20247;-83
2023/01/25 04:12:23;;;;;;;0.00;0.00;;;;;;;;;;5109989;28;20197;-83
2023/01/25 04:14:49;;;;;;;0.30;0.30;;;;;;;;;;5110193;28;20234;-83
2023/01/25 04:17:16;;;;;;;0.20;0.20;;;;;;;;;;5109474;28;20695;-83
2023/01/25 04:19:43;;;;;;;0.30;0.30;;;;;;;;;;5109685;28;20302;-83
2023/01/25 04:22:11;;;;;;;0.20;0.20;;;;;;;;;;5110148;28;20321;-84
2023/01/25 04:24:38;;;;;;;0.00;0.00;;;;;;;;;;5109258;28;20206;-83
2023/01/25 04:27:07;;;;;;;0.00;0.00;;;;;;;;;;5111801;28;20197;-84
2023/01/25 04:29:34;;;;;;;0.17;0.17;;;;;;;;;;5114350;28;20803;-83
2023/01/25 04:32:01;;;;;;;0.00;0.00;;;;;;;;;;5113182;28;20682;-84
2023/01/25 04:34:28;;;;;;;0.07;0.07;;;;;;;;;;5114246;28;20268;-84
2023/01/25 04:36:55;;;;;;;0.13;0.13;;;;;;;;;;5113663;28;20209;-83
2023/01/25 04:39:22;;;;;;;0.40;0.40;;;;;;;;;;5113284;28;20217;-83
2023/01/25 04:41:48;;;;;;;0.43;0.43;;;;;;;;;;5113872;28;20205;-83
2023/01/25 04:44:17;;;;;;;0.50;0.50;;;;;;;;;;5113277;28;20409;-83
2023/01/25 04:46:45;;;;;;;0.40;0.30;;;;;;;;;;5113088;28;20220;-83
2023/01/25 04:49:11;;;;;;;0.00;0.00;;;;;;;;;;5114447;28;20665;-83
2023/01/25 04:51:38;;;;;;;0.20;0.20;;;;;;;;;;5116738;28;20686;-83
2023/01/25 04:54:05;;;;;;;0.10;0.10;;;;;;;;;;5115425;28;20201;-82
2023/01/25 04:56:31;;;;;;;0.40;0.33;;;;;;;;;;5113276;28;20681;-84
2023/01/25 04:58:58;;;;;;;0.10;0.10;;;;;;;;;;5113658;28;20204;-83
2023/01/25 05:01:27;;;;;;;0.47;0.47;;;;;;;;;;5113021;28;20193;-84
2023/01/25 05:03:54;;;;;;;0.10;0.10;;;;;;;;;;5112837;28;20193;-83
2023/01/25 05:06:21;;;;;;;0.20;0.20;;;;;;;;;;5113251;28;20201;-84
2023/01/25 05:08:48;;;;;;;0.07;0.07;;;;;;;;;;5113361;28;20227;-82
2023/01/25 05:11:15;;;;;;;0.00;0.00;;;;;;;;;;5114009;28;20229;-83
2023/01/25 05:13:42;;;;;;;0.03;0.03;;;;;;;;;;5114701;28;20274;-83
2023/01/25 05:16:09;;;;;;;0.10;0.10;;;;;;;;;;5115523;28;20217;-83
2023/01/25 05:18:37;;;;;;;0.00;0.00;;;;;;;;;;5116651;27;20207;-83
2023/01/25 05:21:04;;;;;;;0.30;0.30;;;;;;;;;;5115417;28;20193;-84
2023/01/25 05:23:31;;;;;;;0.03;0.03;;;;;;;;;;5114537;27;20194;-82
2023/01/25 05:28:41;;;;;;;0.20;0.20;;;;;;;;;;5141040;27;20737;-82
2023/01/25 05:31:08;;;;;;;0.07;0.07;;;;;;;;;;5134282;27;20220;-82
2023/01/25 05:33:36;;;;;;;0.53;0.53;;;;;;;;;;5133921;27;20277;-87
2023/01/25 05:36:05;;;;;;;0.17;0.17;;;;;;;;;;5134753;27;20647;-84
2023/01/25 05:38:32;;;;;;;0.10;0.10;;;;;;;;;;5132209;27;20204;-84
2023/01/25 05:41:00;;;;;;;0.10;0.10;;;;;;;;;;5132106;27;20207;-82
2023/01/25 05:43:27;;;;;;;0.23;0.23;;;;;;;;;;5132303;27;20664;-83
2023/01/25 05:45:55;;;;;;;0.20;0.20;;;;;;;;;;5131370;27;20209;-83
2023/01/25 05:48:22;;;;;;;0.33;0.33;;;;;;;;;;5132100;27;20578;-82
2023/01/25 05:50:48;;;;;;;0.50;0.50;;;;;;;;;;5132305;27;20684;-82
2023/01/25 05:53:24;;;;;;;0.07;0.07;;;;;;;;;;5132303;27;20192;-81
2023/01/25 05:55:51;;;;;;;0.00;0.00;;;;;;;;;;5141427;27;20192;-81
2023/01/25 05:58:18;;;;;;;0.87;0.80;;;;;;;;;;5138028;27;20288;-83
2023/01/25 06:00:45;;;;;;;0.10;0.10;;;;;;;;;;5117417;27;20545;-82
2023/01/25 06:03:13;;;;;;;0.10;0.10;;;;;;;;;;5131194;27;20196;-82
2023/01/25 06:05:39;;;;;;;0.20;0.20;;;;;;;;;;5132589;27;20203;-82
2023/01/25 06:08:06;;;;;;;0.30;0.30;;;;;;;;;;5131730;27;20261;-82
2023/01/25 06:10:34;;;;;;;0.00;0.00;;;;;;;;;;5131889;27;20700;-81
2023/01/25 06:13:02;;;;;;;0.40;0.40;;;;;;;;;;5131268;27;20208;-82
2023/01/25 06:15:29;;;;;;;0.03;0.03;;;;;;;;;;5131688;27;20200;-83
2023/01/25 06:17:56;;;;;;;0.10;0.10;;;;;;;;;;5132676;27;20200;-83
2023/01/25 06:20:23;;;;;;;0.10;0.10;;;;;;;;;;5132566;27;20310;-82
2023/01/25 06:22:50;;;;;;;0.10;0.10;;;;;;;;;;5131776;27;20331;-82
2023/01/25 06:25:17;;;;;;;0.57;0.40;;;;;;;;;;5132569;27;20208;-82
2023/01/25 06:27:46;;;;;;;0.73;0.40;;;;;;;;;;5132112;27;20672;-83
2023/01/25 06:30:13;;;;;;;0.10;0.10;;;;;;;;;;5131036;27;20224;-82
2023/01/25 06:32:40;;;;;;;0.20;0.20;;;;;;;;;;5131997;27;20723;-83
2023/01/25 06:35:07;;;;;;;0.07;0.07;;;;;;;;;;5132199;27;20668;-83
2023/01/25 06:37:33;;;;;;;0.10;0.10;;;;;;;;;;5131665;27;20197;-83
2023/01/25 06:40:00;;;;;;;0.10;0.10;;;;;;;;;;5131754;27;20664;-84
2023/01/25 06:42:27;;;;;;;0.23;0.23;;;;;;;;;;5127224;27;20208;-83
2023/01/25 06:44:56;;;;;;;0.07;0.07;;;;;;;;;;5122390;27;20228;-83
2023/01/25 06:47:23;;;;;;;0.20;0.20;;;;;;;;;;5131818;27;20189;-82
2023/01/25 06:49:50;;;;;;;0.27;0.27;;;;;;;;;;5130642;27;20200;-82
2023/01/25 06:52:17;;;;;;;0.50;0.50;;;;;;;;;;5132020;27;20673;-81
2023/01/25 06:54:45;;;;;;;0.00;0.00;;;;;;;;;;5132284;27;20211;-84
2023/01/25 06:57:12;;;;;;;0.30;0.30;;;;;;;;;;5131512;27;20265;-83
2023/01/25 06:59:39;;;;;;;0.10;0.10;;;;;;;;;;5136115;27;20263;-83
2023/01/25 07:02:08;;;;;;;0.23;0.23;;;;;;;;;;5134946;27;20394;-83
2023/01/25 07:04:34;;;;;;;0.07;0.07;;;;;;;;;;5136133;27;20201;-83
2023/01/25 07:07:03;;;;;;;0.10;0.10;;;;;;;;;;5136589;27;20197;-84
2023/01/25 07:09:30;;;;;;;0.27;0.27;;;;;;;;;;5135164;27;20650;-83
2023/01/25 07:11:57;;;;;;;0.10;0.10;;;;;;;;;;5135587;27;20229;-82
2023/01/25 07:14:24;;;;;;;0.33;0.33;;;;;;;;;;5135768;27;20261;-83
2023/01/25 07:16:51;;;;;;;0.40;0.40;;;;;;;;;;5137858;27;20224;-82
2023/01/25 07:19:19;;;;;;;1.30;0.30;;;;;;;;;;5137661;27;20205;-84
2023/01/25 07:21:46;;;;;;;0.83;0.60;;;;;;;;;;5136496;27;20196;-83
2023/01/25 07:24:15;;;;;;;0.57;0.30;;;;;;;;;;5135781;27;20204;-81
2023/01/25 07:26:43;;;;;;;0.33;0.33;;;;;;;;;;5137106;27;20707;-83
2023/01/25 07:29:13;;;;;;;0.83;0.83;;;;;;;;;;5116898;27;20216;-82
2023/01/25 07:31:40;;;;;;;0.10;0.10;;;;;;;;;;5113837;28;20228;-82
2023/01/25 07:34:09;;;;;;;0.23;0.23;;;;;;;;;;5120924;27;20257;-84
2023/01/25 07:36:38;;;;;;;0.10;0.10;;;;;;;;;;5134876;27;20582;-83
2023/01/25 07:39:04;;;;;;;0.20;0.20;;;;;;;;;;5130979;27;20302;-83
2023/01/25 07:41:31;;;;;;;0.20;0.20;;;;;;;;;;5131520;27;20254;-82
2023/01/25 07:44:01;;;;;;;0.57;0.57;;;;;;;;;;5133515;27;20764;-82
2023/01/25 07:46:28;;;;;;;0.47;0.47;;;;;;;;;;5137172;27;20712;-83
2023/01/25 07:48:57;;;;;;;0.00;0.00;;;;;;;;;;5141211;27;20192;-83
2023/01/25 07:51:25;;;;;;;0.20;0.20;;;;;;;;;;5142535;27;20676;-84
2023/01/25 07:53:56;;;;;;;0.00;0.00;;;;;;;;;;5151648;27;20203;-83
2023/01/25 07:56:23;;;;;;;0.90;0.83;;;;;;;;;;5148175;27;20191;-81
2023/01/25 07:58:52;;;;;;;0.10;0.10;;;;;;;;;;5142027;27;20406;-82
2023/01/25 08:01:20;;;;;;;0.37;0.37;;;;;;;;;;5139808;27;20283;-82
2023/01/25 08:03:48;;;;;;;0.57;0.40;;;;;;;;;;5142078;27;20263;-81
2023/01/25 08:06:15;;;;;;;0.10;0.10;;;;;;;;;;5146567;27;20202;-83
2023/01/25 08:08:43;;;;;;;0.70;0.70;;;;;;;;;;5146684;27;20203;-83
2023/01/25 08:11:14;;;;;;;0.97;0.50;;;;;;;;;;5138855;27;20224;-84
2023/01/25 08:13:44;;;;;;;0.93;0.93;;;;;;;;;;5144791;27;20580;-83
2023/01/25 08:16:12;;;;;;;0.00;0.00;;;;;;;;;;5156268;27;20592;-83
2023/01/25 08:18:39;;;;;;;0.23;0.23;;;;;;;;;;5156791;27;20225;-83
2023/01/25 08:21:06;;;;;;;0.40;0.40;;;;;;;;;;5153320;27;20719;-83
2023/01/25 08:23:33;;;;;;;1.93;0.97;;;;;;;;;;5152103;27;20675;-81
2023/01/25 08:26:03;;;;;;;0.00;0.00;;;;;;;;;;5147074;27;20211;-82
2023/01/25 08:28:32;;;;;;;0.47;0.47;;;;;;;;;;5139062;27;20818;-82
2023/01/25 08:31:05;;;;;;;0.70;0.37;;;;;;;;;;5145696;27;20216;-82
2023/01/25 08:33:32;;;;;;;0.73;0.73;;;;;;;;;;5143287;27;20203;-83
2023/01/25 08:35:59;;;;;;;1.10;0.67;;;;;;;;;;5130184;27;20242;-83
2023/01/25 08:38:27;;;;;;;0.20;0.20;;;;;;;;;;5136238;27;20228;-82
2023/01/25 08:40:54;;;;;;;0.60;0.60;;;;;;;;;;5135706;27;20227;-83
2023/01/25 08:43:20;;;;;;;0.70;0.70;;;;;;;;;;5139816;27;20232;-83
2023/01/25 08:45:55;;;;;;;0.50;0.50;;;;;;;;;;5143982;27;20304;-83
2023/01/25 08:48:22;;;;;;;0.23;0.23;;;;;;;;;;5124278;27;20288;-81
2023/01/25 08:50:51;;;;;;;1.80;1.13;;;;;;;;;;5128417;27;20233;-83
2023/01/25 08:53:18;;;;;;;5.40;1.53;;;;;;;;;;5119697;27;20708;-83
2023/01/25 08:55:45;;;;;;;0.20;0.20;;;;;;;;;;5121450;28;20290;-82
2023/01/25 08:58:13;;;;;;;1.40;0.80;;;;;;;;;;5123904;27;20224;-83
2023/01/25 09:00:40;;;;;;;0.33;0.33;;;;;;;;;;5132736;27;20221;-82
2023/01/25 09:03:09;;;;;;;0.27;0.27;;;;;;;;;;5131158;27;20212;-83
2023/01/25 09:05:37;;;;;;;0.43;0.40;;;;;;;;;;5130633;27;20285;-82
2023/01/25 09:08:05;;;;;;;0.47;0.47;;;;;;;;;;5112530;28;20720;-83
2023/01/25 09:10:32;;;;;;;5.33;0.77;;;;;;;;;;5118358;27;20220;-82
2023/01/25 09:12:59;;;;;;;0.77;0.73;;;;;;;;;;5127445;27;20227;-83
2023/01/25 09:15:26;;;;;;;0.10;0.10;;;;;;;;;;5134820;27;20599;-83
2023/01/25 09:17:53;;;;;;;0.93;0.93;;;;;;;;;;5143474;27;20229;-82
2023/01/25 09:20:22;;;;;;;1.13;1.00;;;;;;;;;;5147124;27;20315;-83
2023/01/25 09:22:49;;;;;;;0.57;0.33;;;;;;;;;;5138508;27;20212;-80
2023/01/25 09:25:17;;;;;;;0.70;0.70;;;;;;;;;;5143157;27;20648;-80
2023/01/25 09:27:43;;;;;;;3.70;0.50;;;;;;;;;;5143174;27;20226;-83
2023/01/25 09:30:13;;;;;;;1.70;1.57;;;;;;;;;;5139926;27;20212;-83
2023/01/25 09:32:40;;;;;;;2.47;1.00;;;;;;;;;;5135882;27;20250;-82
2023/01/25 09:35:07;;;;;;;1.70;0.67;;;;;;;;;;5155680;27;20311;-83
2023/01/25 09:37:36;;;;;;;0.20;0.20;;;;;;;;;;5152113;27;20224;-83
2023/01/25 09:40:03;;;;;;;0.20;0.20;;;;;;;;;;5119582;28;20251;-82
2023/01/25 09:42:40;;;;;;;0.40;0.40;;;;;;;;;;5151136;27;20212;-83
2023/01/25 09:45:20;;;;;;;0.37;0.37;;;;;;;;;;5160843;27;20241;-82
2023/01/25 09:47:51;;;;;;;0.10;0.10;;;;;;;;;;5155864;27;20688;-84
2023/01/25 09:50:32;;;;;;;0.53;0.53;;;;;;;;;;5136132;27;20229;-82
2023/01/25 09:53:15;;;;;;;0.33;0.33;;;;;;;;;;5134060;27;20252;-83
2023/01/25 09:55:45;;;;;;;0.50;0.50;;;;;;;;;;5132435;27;20220;-83
2023/01/25 09:58:14;;;;;;;0.40;0.40;;;;;;;;;;5135850;27;20228;-83
2023/01/25 10:00:44;;;;;;;0.50;0.50;;;;;;;;;;5140086;27;20696;-83
2023/01/25 10:03:13;;;;;;;0.07;0.03;;;;;;;;;;5146752;27;20776;-82
2023/01/25 10:05:44;;;;;;;0.50;0.50;;;;;;;;;;5152780;27;20230;-90
2023/01/25 10:08:18;;;;;;;0.50;0.50;;;;;;;;;;5153585;27;20211;-90
2023/01/25 10:10:49;;;;;;;0.77;0.77;;;;;;;;;;5155924;27;20696;-91
2023/01/25 10:13:18;;;;;;;0.20;0.20;;;;;;;;;;5153503;27;20225;-91
2023/01/25 10:15:48;;;;;;;1.37;1.30;;;;;;;;;;5118967;28;20213;-90
2023/01/25 10:18:19;;;;;;;0.23;0.23;;;;;;;;;;5129839;28;20225;-89
2023/01/25 10:20:50;;;;;;;0.50;0.50;;;;;;;;;;5131993;27;20213;-89
2023/01/25 10:23:39;;;;;;;0.27;0.27;;;;;;;;;;5129566;28;20220;-90
2023/01/25 10:26:10;;;;;;;0.40;0.40;;;;;;;;;;5138598;27;20240;-89
2023/01/25 10:28:39;;;;;;;0.40;0.40;;;;;;;;;;5146589;27;20236;-88
2023/01/25 10:31:11;;;;;;;1.50;1.03;;;;;;;;;;5143616;27;20236;-88
2023/01/25 10:33:41;;;;;;;3.17;1.43;;;;;;;;;;5137865;27;20220;-90
2023/01/25 10:36:13;;;;;;;0.13;0.13;;;;;;;;;;5137075;27;20248;-88
2023/01/25 10:38:41;;;;;;;0.30;0.30;;;;;;;;;;5136216;27;20223;-89
2023/01/25 10:41:12;;;;;;;0.30;0.30;;;;;;;;;;5133442;27;20765;-89
2023/01/25 10:43:41;;;;;;;1.50;0.70;;;;;;;;;;5136802;27;20701;-88
2023/01/25 10:46:17;;;;;;;0.20;0.20;;;;;;;;;;5136038;27;20304;-90
2023/01/25 10:48:43;;;;;;;0.20;0.20;;;;;;;;;;5143690;27;20232;-87
2023/01/25 10:51:28;;;;;;;0.17;0.17;;;;;;;;;;5140681;27;20236;-88
2023/01/25 10:53:59;;;;;;;0.47;0.33;;;;;;;;;;5155536;27;20223;-89
2023/01/25 10:56:28;;;;;;;0.63;0.63;;;;;;;;;;5157724;27;20225;-87
2023/01/25 10:59:07;;;;;;;0.70;0.70;;;;;;;;;;5147154;27;20216;-91
2023/01/25 11:01:35;;;;;;;1.17;1.07;;;;;;;;;;5146565;27;20225;-91
2023/01/25 11:04:05;;;;;;;1.03;0.87;;;;;;;;;;5145432;27;20236;-92
2023/01/25 11:06:34;;;;;;;0.10;0.10;;;;;;;;;;5144242;27;20228;-90
2023/01/25 11:09:01;;;;;;;1.37;0.97;;;;;;;;;;5147870;27;20212;-90
2023/01/25 11:11:35;;;;;;;0.50;0.50;;;;;;;;;;5143220;27;20255;-91
2023/01/25 11:14:02;;;;;;;0.50;0.50;;;;;;;;;;5143388;27;20212;-91
2023/01/25 11:16:34;;;;;;;0.10;0.10;;;;;;;;;;5141621;27;20229;-90
2023/01/25 11:19:02;;;;;;;2.10;1.03;;;;;;;;;;5114803;28;20560;-91
2023/01/25 11:21:30;;;;;;;0.67;0.67;;;;;;;;;;5138826;27;20284;-89
2023/01/25 11:24:02;;;;;;;0.30;0.30;;;;;;;;;;5143613;27;20224;-89
2023/01/25 11:26:32;;;;;;;1.43;1.00;;;;;;;;;;5136813;27;20229;-89
2023/01/25 11:29:13;;;;;;;0.10;0.10;;;;;;;;;;5133796;27;20213;-89
2023/01/25 11:31:41;;;;;;;0.10;0.10;;;;;;;;;;5133767;27;20236;-90
2023/01/25 11:34:10;;;;;;;0.10;0.10;;;;;;;;;;5132140;27;20216;-91
2023/01/25 11:36:43;;;;;;;0.13;0.13;;;;;;;;;;5134266;27;20300;-89
2023/01/25 11:39:27;;;;;;;0.23;0.23;;;;;;;;;;5132900;27;20248;-89
2023/01/25 11:41:59;;;;;;;0.90;0.90;;;;;;;;;;5134024;27;20280;-88
2023/01/25 11:44:45;;;;;;;0.20;0.20;;;;;;;;;;5136219;27;20283;-90
2023/01/25 11:47:23;;;;;;;0.07;0.07;;;;;;;;;;5138091;27;20673;-89
2023/01/25 11:49:54;;;;;;;0.63;0.63;;;;;;;;;;5134813;27;20242;-89
2023/01/25 11:52:26;;;;;;;1.13;1.03;;;;;;;;;;5134397;27;20832;-92
2023/01/25 11:54:57;;;;;;;0.10;0.10;;;;;;;;;;5135017;27;20229;-91
2023/01/25 11:57:47;;;;;;;0.30;0.30;;;;;;;;;;5133462;27;20220;-90
2023/01/25 12:00:19;;;;;;;0.30;0.30;;;;;;;;;;5131513;27;20213;-90
2023/01/25 12:03:08;;;;;;;0.10;0.10;;;;;;;;;;5137241;27;20302;-91
2023/01/25 12:05:44;;;;;;;0.20;0.20;;;;;;;;;;5128356;27;20265;-91
2023/01/25 12:08:28;;;;;;;0.80;0.80;;;;;;;;;;5138386;27;20319;-91
2023/01/25 12:10:58;;;;;;;1.00;0.97;;;;;;;;;;5150959;27;20219;-89
2023/01/25 12:13:31;;;;;;;1.20;0.40;;;;;;;;;;5141024;27;20688;-90
2023/01/25 12:16:09;;;;;;;0.27;0.27;;;;;;;;;;5138820;27;20597;-88
2023/01/25 12:18:48;;;;;;;0.40;0.40;;;;;;;;;;5141868;27;20765;-89
2023/01/25 12:21:22;;;;;;;0.10;0.10;;;;;;;;;;5140118;27;20249;-91
2023/01/25 12:23:58;;;;;;;0.43;0.43;;;;;;;;;;5149450;27;20279;-90
2023/01/25 12:26:28;;;;;;;0.40;0.40;;;;;;;;;;5141740;27;20623;-89
2023/01/25 12:28:59;;;;;;;0.40;0.40;;;;;;;;;;5146627;27;20212;-89
2023/01/25 12:31:27;;;;;;;0.30;0.30;;;;;;;;;;5155157;27;20220;-89
2023/01/25 12:33:57;;;;;;;0.33;0.33;;;;;;;;;;5158274;27;20340;-90
2023/01/25 12:36:29;;;;;;;0.40;0.33;;;;;;;;;;5162277;27;20232;-88
2023/01/25 12:38:58;;;;;;;0.33;0.33;;;;;;;;;;5165478;27;20231;-89
2023/01/25 12:41:39;;;;;;;0.47;0.47;;;;;;;;;;5163075;27;20596;-91
2023/01/25 12:44:16;;;;;;;0.97;0.97;;;;;;;;;;5157584;27;20330;-90
2023/01/25 12:46:45;;;;;;;0.23;0.23;;;;;;;;;;5156641;27;20234;-89
2023/01/25 12:49:16;;;;;;;0.00;0.00;;;;;;;;;;5145055;27;20224;-89
2023/01/25 12:51:46;;;;;;;0.73;0.40;;;;;;;;;;5140648;27;20606;-88
2023/01/25 12:54:21;;;;;;;0.30;0.30;;;;;;;;;;5137755;27;20224;-89
2023/01/25 12:56:53;;;;;;;0.37;0.37;;;;;;;;;;5140914;27;20738;-91
2023/01/25 12:59:24;;;;;;;0.50;0.33;;;;;;;;;;5141454;27;20227;-90
2023/01/25 13:01:55;;;;;;;0.20;0.20;;;;;;;;;;5139731;27;20746;-87
2023/01/25 13:04:35;;;;;;;0.17;0.17;;;;;;;;;;5143161;27;20256;-90
2023/01/25 13:07:11;;;;;;;0.43;0.43;;;;;;;;;;5139344;27;20231;-89
2023/01/25 13:09:44;;;;;;;0.70;0.30;;;;;;;;;;5135781;27;20277;-88
2023/01/25 13:12:13;;;;;;;0.17;0.17;;;;;;;;;;5134887;27;20247;-90
2023/01/25 13:14:55;;;;;;;1.70;0.60;;;;;;;;;;5162350;27;20671;-89
2023/01/25 13:17:24;;;;;;;0.00;0.00;;;;;;;;;;5163200;27;20224;-89
2023/01/25 13:19:53;;;;;;;0.50;0.30;;;;;;;;;;5122037;27;20221;-90
2023/01/25 13:22:40;;;;;;;0.30;0.30;;;;;;;;;;5142509;27;20227;-89
2023/01/25 13:25:19;;;;;;;0.40;0.40;;;;;;;;;;5168894;27;20208;-90
2023/01/25 13:27:47;;;;;;;0.00;0.00;;;;;;;;;;5166760;27;20272;-91
2023/01/25 13:30:32;;;;;;;0.23;0.23;;;;;;;;;;5163684;27;20241;-90
2023/01/25 13:33:05;;;;;;;0.00;0.00;;;;;;;;;;5161862;27;20235;-91
2023/01/25 13:35:37;;;;;;;0.40;0.40;;;;;;;;;;5162235;27;20239;-90
2023/01/25 13:38:29;;;;;;;0.30;0.30;;;;;;;;;;5152792;27;20228;-90
2023/01/25 13:41:17;;;;;;;1.43;0.67;;;;;;;;;;5136244;27;20308;-83
2023/01/25 13:43:46;;;;;;;0.13;0.13;;;;;;;;;;5139822;27;20277;-83
2023/01/25 13:46:17;;;;;;;0.20;0.20;;;;;;;;;;5137958;27;20236;-83
2023/01/25 13:48:52;;;;;;;0.00;0.00;;;;;;;;;;5140961;27;20250;-82
2023/01/25 13:51:20;;;;;;;0.10;0.10;;;;;;;;;;5136587;27;20232;-89
2023/01/25 13:53:58;;;;;;;0.57;0.30;;;;;;;;;;5154145;27;20267;-90
2023/01/25 13:56:28;;;;;;;0.50;0.50;;;;;;;;;;5149234;27;20223;-90
2023/01/25 13:58:55;;;;;;;0.20;0.20;;;;;;;;;;5127540;27;20301;-90
2023/01/25 14:01:23;;;;;;;9.03;1.03;;;;;;;;;;5132932;27;20248;-89
2023/01/25 14:03:53;;;;;;;0.33;0.33;;;;;;;;;;5139800;27;20300;-88
2023/01/25 14:06:22;;;;;;;0.57;0.57;;;;;;;;;;5121592;27;20224;-90
2023/01/25 14:08:50;;;;;;;0.00;0.00;;;;;;;;;;5119086;27;20217;-91
2023/01/25 14:11:18;;;;;;;0.33;0.33;;;;;;;;;;5117954;28;20213;-89
2023/01/25 14:13:58;;;;;;;0.23;0.23;;;;;;;;;;5141907;27;20220;-90
2023/01/25 14:16:28;;;;;;;2.40;0.90;;;;;;;;;;5152277;27;20216;-90
2023/01/25 14:18:56;;;;;;;0.63;0.63;;;;;;;;;;5145021;27;20224;-91
2023/01/25 14:21:24;;;;;;;0.83;0.53;;;;;;;;;;5156765;27;20634;-91
2023/01/25 14:23:52;;;;;;;0.67;0.67;;;;;;;;;;5158151;27;20222;-90
2023/01/25 14:26:20;;;;;;;0.03;0.03;;;;;;;;;;5139284;27;20216;-91
2023/01/25 14:28:48;;;;;;;0.87;0.40;;;;;;;;;;5136617;27;20256;-91
2023/01/25 14:31:22;;;;;;;1.30;0.33;;;;;;;;;;5136758;27;20216;-90
2023/01/25 14:33:53;;;;;;;0.83;0.40;;;;;;;;;;5139403;27;20232;-88
2023/01/25 14:36:23;;;;;;;0.30;0.30;;;;;;;;;;5141322;27;20251;-90
2023/01/25 14:38:51;;;;;;;1.03;0.47;;;;;;;;;;5137850;27;20227;-91
2023/01/25 14:41:22;;;;;;;0.93;0.60;;;;;;;;;;5139644;27;20323;-88
2023/01/25 14:43:51;;;;;;;1.07;1.07;;;;;;;;;;5138372;27;20659;-91
2023/01/25 14:46:25;;;;;;;1.17;1.07;;;;;;;;;;5138953;27;20216;-88
2023/01/25 14:48:53;;;;;;;0.27;0.27;;;;;;;;;;5123893;27;20221;-91
2023/01/25 14:51:27;;;;;;;0.70;0.50;;;;;;;;;;5114774;28;20217;-89
2023/01/25 14:54:00;;;;;;;0.60;0.60;;;;;;;;;;5115626;28;20270;-90
2023/01/25 14:56:30;;;;;;;0.70;0.70;;;;;;;;;;5115024;27;20232;-90
2023/01/25 14:58:58;;;;;;;2.00;0.50;;;;;;;;;;5117418;28;20228;-88